This is the latest recevied weather packets stored in our database for station/object KA3WVU. If no packets are shown the sender has not sent any weather packets the latest 10 day(s).
| Time | Temp. | Humidity | Pressure | Rain* | Wind** | Luminosity | Snow |
|---|---|---|---|---|---|---|---|
| 1777744020 | 3.89° C | 80% | 1013.2 hPa | 0 mm | - | 196 W/m² | - |
| 1777743716 | 3.89° C | 79% | 1013.4 hPa | 0 mm | - | 155 W/m² | - |
| 1777743413 | 3.33° C | 83% | 1013.5 hPa | 0 mm | - | 166 W/m² | - |
| 1777743111 | 2.78° C | 84% | 1013.3 hPa | 0 mm | - | 136 W/m² | - |
| 1777742809 | 2.78° C | 83% | 1013.4 hPa | 0 mm | - | 66 W/m² | - |
| 1777742505 | 2.78° C | 83% | 1013.3 hPa | 0 mm | - | 29 W/m² | - |
| 1777742200 | 3.89° C | 79% | 1013.4 hPa | 0 mm | - | 27 W/m² | - |
| 1777741898 | 4.44° C | 77% | 1013.1 hPa | 0 mm | - | 93 W/m² | - |
| 1777741595 | 4.44° C | 74% | 1013.2 hPa | 0 mm | - | 130 W/m² | - |
| 1777741292 | 3.89° C | 74% | 1013.3 hPa | 0 mm | - | 168 W/m² | - |
| 1777740988 | 3.89° C | 73% | 1013.1 hPa | 0 mm | - | 76 W/m² | - |
| 1777740685 | 3.89° C | 74% | 1013.1 hPa | 0 mm | - | 51 W/m² | - |
| 1777740381 | 3.89° C | 74% | 1013.3 hPa | 0 mm | - | 91 W/m² | - |
| 1777740078 | 4.44° C | 74% | 1013.4 hPa | 0 mm | - | 58 W/m² | - |
| 1777739774 | 5° C | 71% | 1013.4 hPa | 0 mm | - | 119 W/m² | - |
| 1777739471 | 5° C | 70% | 1013.4 hPa | 0 mm | - | 128 W/m² | - |
| 1777739168 | 4.44° C | 72% | 1013.5 hPa | 0 mm | - | 261 W/m² | - |
| 1777738865 | 4.44° C | 74% | 1013.2 hPa | 0 mm | - | 127 W/m² | - |
| 1777738562 | 4.44° C | 73% | 1013.3 hPa | 0 mm | - | 85 W/m² | - |
| 1777738259 | 4.44° C | 71% | 1013.3 hPa | 0 mm | - | 160 W/m² | - |
| 1777737957 | 4.44° C | 73% | 1013.2 hPa | 0 mm | - | 91 W/m² | - |
| 1777737655 | 4.44° C | 71% | 1013.2 hPa | 0 mm | - | 80 W/m² | - |
| 1777737354 | 5.56° C | 66% | 1013.2 hPa | 0 mm | - | 144 W/m² | - |
| 1777737051 | 5.56° C | 71% | 1013.2 hPa | 0 mm | - | 462 W/m² | - |
| 1777736746 | 5.56° C | 69% | 1013.5 hPa | 0 mm | - | 214 W/m² | - |
* Rain latest hour (hover to see other rain measurements)
** Current wind speed in m/s (hover to see current wind gust speed)